createdAt,value
2022-10-29T00:01:14.533Z,24.00
2022-10-29T00:11:41.804Z,23.40
2022-10-29T00:22:09.394Z,29.40
2022-10-29T00:32:36.845Z,27.90
2022-10-29T00:43:16.879Z,26.10
2022-10-29T00:53:48.452Z,31.80
2022-10-29T01:04:16.275Z,22.80
2022-10-29T01:14:57.611Z,20.90
2022-10-29T01:25:50.978Z,27.50
2022-10-29T01:36:26.560Z,27.20
2022-10-29T01:46:59.177Z,28.40
2022-10-29T01:57:31.495Z,26.10
2022-10-29T02:08:03.688Z,25.20
2022-10-29T02:18:31.220Z,19.30
2022-10-29T02:28:59.167Z,20.50
2022-10-29T02:39:26.484Z,15.30
2022-10-29T02:49:53.823Z,23.60
2022-10-29T03:00:21.594Z,27.00
2022-10-29T03:10:49.180Z,26.70
2022-10-29T03:21:16.517Z,24.40
2022-10-29T03:31:44.107Z,28.40
2022-10-29T03:42:11.406Z,22.40
2022-10-29T03:52:38.718Z,27.40
2022-10-29T04:03:06.123Z,22.70
2022-10-29T04:13:33.572Z,13.80
2022-10-29T04:34:48.185Z,15.00
2022-10-29T04:45:15.753Z,13.90
2022-10-29T04:55:43.284Z,14.80
2022-10-29T05:06:10.828Z,15.10
2022-10-29T05:16:38.191Z,15.40
2022-10-29T05:27:08.367Z,17.00
2022-10-29T05:37:35.943Z,15.30
2022-10-29T05:48:05.306Z,17.20
2022-10-29T05:58:32.841Z,12.20
2022-10-29T06:09:00.165Z,16.80
2022-10-29T06:19:27.618Z,16.50
2022-10-29T06:29:54.978Z,15.30
2022-10-29T06:40:22.477Z,15.30
2022-10-29T06:50:49.806Z,13.80
2022-10-29T07:01:17.406Z,13.00
2022-10-29T07:11:44.752Z,13.40
2022-10-29T07:22:12.532Z,15.70
2022-10-29T07:32:39.951Z,15.90
2022-10-29T07:43:07.454Z,17.00
2022-10-29T07:53:34.940Z,18.60
2022-10-29T08:04:02.263Z,17.60
2022-10-29T08:14:29.809Z,15.40
2022-10-29T08:24:57.160Z,15.40
2022-10-29T08:35:24.828Z,17.10
2022-10-29T08:45:54.843Z,14.50
2022-10-29T08:56:27.150Z,15.80
2022-10-29T09:07:10.808Z,15.60
2022-10-29T09:17:44.072Z,15.70
2022-10-29T09:28:25.201Z,11.30
2022-10-29T09:38:58.396Z,11.20
2022-10-29T09:49:36.684Z,13.80
2022-10-29T10:00:06.823Z,12.50
2022-10-29T10:10:35.001Z,12.60
2022-10-29T10:21:09.755Z,9.10
2022-10-29T10:31:37.101Z,13.80
2022-10-29T10:42:07.137Z,11.60
2022-10-29T10:52:35.272Z,10.70
2022-10-29T11:03:10.622Z,13.10
2022-10-29T11:13:40.711Z,10.00
2022-10-29T11:24:13.342Z,12.30
2022-10-29T11:34:46.931Z,9.20
2022-10-29T11:45:19.473Z,9.40
2022-10-29T11:55:58.008Z,9.20
2022-10-29T12:06:32.936Z,12.60
2022-10-29T12:17:10.442Z,11.50
2022-10-29T12:27:45.796Z,11.60
2022-10-29T12:38:25.847Z,9.10
2022-10-29T12:49:11.617Z,10.20
2022-10-29T12:59:39.698Z,11.30
2022-10-29T13:10:42.032Z,11.10
2022-10-29T13:21:09.825Z,12.40
2022-10-29T13:31:47.638Z,12.80
2022-10-29T13:42:15.826Z,12.50
2022-10-29T13:52:45.969Z,13.50
2022-10-29T14:03:23.148Z,13.10
2022-10-29T14:13:52.486Z,13.80
2022-10-29T14:24:19.960Z,12.40
2022-10-29T14:34:49.452Z,13.80
2022-10-29T14:45:24.071Z,16.10
2022-10-29T14:55:52.296Z,15.00
2022-10-29T15:06:22.007Z,24.10
2022-10-29T15:16:50.345Z,19.90
2022-10-29T15:27:17.892Z,17.90
2022-10-29T15:37:46.809Z,16.90
2022-10-29T15:48:36.546Z,17.00
2022-10-29T15:59:03.993Z,18.80
2022-10-29T16:09:31.327Z,19.90
2022-10-29T16:19:58.663Z,20.40
2022-10-29T16:30:26.491Z,18.80
2022-10-29T16:40:53.912Z,18.90
2022-10-29T16:51:21.334Z,19.30
2022-10-29T17:01:49.865Z,17.10
2022-10-29T17:12:17.499Z,21.50
2022-10-29T17:22:44.885Z,19.70
2022-10-29T17:33:13.077Z,19.00
2022-10-29T17:43:40.576Z,19.90
2022-10-29T17:54:08.305Z,19.40
2022-10-29T18:04:35.856Z,18.10
2022-10-29T18:15:03.462Z,19.60
2022-10-29T18:25:30.834Z,18.20
2022-10-29T18:35:59.020Z,15.10
2022-10-29T18:56:52.077Z,15.10
2022-10-29T19:07:19.477Z,21.90
2022-10-29T19:17:47.146Z,23.30
2022-10-29T19:28:14.474Z,17.50
2022-10-29T19:38:41.866Z,19.40
2022-10-29T19:49:09.400Z,19.60
2022-10-29T19:59:37.193Z,20.30
2022-10-29T20:10:05.390Z,22.80
2022-10-29T20:20:32.726Z,26.10
2022-10-29T20:31:29.767Z,25.50
2022-10-29T20:41:57.977Z,27.90
2022-10-29T20:52:25.398Z,26.00
2022-10-29T21:02:52.622Z,26.80
2022-10-29T21:13:19.988Z,27.00
2022-10-29T21:23:47.509Z,26.90
2022-10-29T21:34:14.800Z,23.90
2022-10-29T21:44:42.097Z,23.20
2022-10-29T21:55:10.309Z,26.10
2022-10-29T22:05:37.603Z,23.20
2022-10-29T22:16:06.203Z,18.60
2022-10-29T22:26:35.011Z,22.40
2022-10-29T22:37:02.360Z,20.00
2022-10-29T22:47:29.617Z,19.00
2022-10-29T22:57:58.320Z,24.00
2022-10-29T23:08:25.631Z,23.60
2022-10-29T23:18:54.048Z,26.40
2022-10-29T23:29:21.388Z,25.90
2022-10-29T23:39:48.636Z,28.00
2022-10-29T23:50:15.985Z,31.70
